createdAt,value
2022-09-28T00:01:17.170Z,100.00
2022-09-28T00:03:45.754Z,100.00
2022-09-28T00:06:19.822Z,100.00
2022-09-28T00:08:50.652Z,100.00
2022-09-28T00:11:19.685Z,100.00
2022-09-28T00:13:50.752Z,100.00
2022-09-28T00:16:20.493Z,100.00
2022-09-28T00:18:48.476Z,100.00
2022-09-28T00:21:18.822Z,100.00
2022-09-28T00:23:46.427Z,100.00
2022-09-28T00:26:15.566Z,100.00
2022-09-28T00:28:43.292Z,100.00
2022-09-28T00:31:11.054Z,100.00
2022-09-28T00:33:38.771Z,100.00
2022-09-28T00:36:06.737Z,100.00
2022-09-28T00:38:35.014Z,100.00
2022-09-28T00:41:02.756Z,100.00
2022-09-28T00:43:32.628Z,100.00
2022-09-28T00:46:04.030Z,100.00
2022-09-28T00:48:34.192Z,100.00
2022-09-28T00:51:06.549Z,100.00
2022-09-28T00:53:36.936Z,100.00
2022-09-28T00:56:07.314Z,100.00
2022-09-28T00:58:41.113Z,100.00
2022-09-28T01:01:08.903Z,100.00
2022-09-28T01:03:38.611Z,100.00
2022-09-28T01:06:07.904Z,100.00
2022-09-28T01:08:37.307Z,100.00
2022-09-28T01:11:05.250Z,100.00
2022-09-28T01:13:33.665Z,100.00
2022-09-28T01:16:12.134Z,100.00
2022-09-28T01:18:49.700Z,100.00
2022-09-28T01:21:20.164Z,100.00
2022-09-28T01:24:06.120Z,100.00
2022-09-28T01:27:05.466Z,100.00
2022-09-28T01:29:46.215Z,100.00
2022-09-28T01:32:32.463Z,100.00
2022-09-28T01:35:05.696Z,100.00
2022-09-28T01:37:41.632Z,100.00
2022-09-28T01:40:12.384Z,100.00
2022-09-28T01:42:44.903Z,100.00
2022-09-28T01:45:18.382Z,100.00
2022-09-28T01:47:47.786Z,100.00
2022-09-28T01:50:18.468Z,100.00
2022-09-28T01:52:52.374Z,100.00
2022-09-28T01:55:28.197Z,100.00
2022-09-28T01:58:02.926Z,100.00
2022-09-28T02:00:31.282Z,100.00
2022-09-28T02:03:05.354Z,100.00
2022-09-28T02:05:35.608Z,100.00
2022-09-28T02:08:09.048Z,100.00
2022-09-28T02:10:43.361Z,100.00
2022-09-28T02:13:19.983Z,100.00
2022-09-28T02:15:52.472Z,100.00
2022-09-28T02:18:20.408Z,100.00
2022-09-28T02:20:56.529Z,100.00
2022-09-28T02:23:28.526Z,100.00
2022-09-28T02:26:02.189Z,100.00
2022-09-28T02:28:31.334Z,100.00
2022-09-28T02:30:58.939Z,100.00
2022-09-28T02:33:31.832Z,100.00
2022-09-28T02:36:00.845Z,100.00
2022-09-28T02:38:28.558Z,100.00
2022-09-28T02:41:03.887Z,100.00
2022-09-28T02:43:45.162Z,100.00
2022-09-28T02:46:21.926Z,100.00
2022-09-28T02:49:19.887Z,100.00
2022-09-28T02:52:02.053Z,100.00
2022-09-28T02:54:47.599Z,100.00
2022-09-28T02:57:31.871Z,100.00
2022-09-28T03:00:05.734Z,100.00
2022-09-28T03:02:40.140Z,100.00
2022-09-28T03:05:15.547Z,100.00
2022-09-28T03:07:52.248Z,100.00
2022-09-28T03:10:28.374Z,100.00
2022-09-28T03:12:57.334Z,100.00
2022-09-28T03:15:28.486Z,100.00
2022-09-28T03:17:56.920Z,100.00
2022-09-28T03:20:25.176Z,100.00
2022-09-28T03:23:19.851Z,100.00
2022-09-28T03:25:40.772Z,100.00
2022-09-28T03:28:08.333Z,100.00
2022-09-28T03:30:41.060Z,100.00
2022-09-28T03:33:08.625Z,100.00
2022-09-28T03:35:36.351Z,100.00
2022-09-28T03:38:04.240Z,100.00
2022-09-28T03:40:32.149Z,100.00
2022-09-28T03:43:00.692Z,100.00
2022-09-28T03:45:28.530Z,100.00
2022-09-28T03:47:57.511Z,100.00
2022-09-28T03:50:25.870Z,100.00
2022-09-28T03:52:53.998Z,100.00
2022-09-28T03:55:21.702Z,100.00
2022-09-28T03:57:54.082Z,100.00
2022-09-28T04:00:22.113Z,100.00
2022-09-28T04:02:50.405Z,100.00
2022-09-28T04:05:19.580Z,100.00
2022-09-28T04:07:47.158Z,100.00
2022-09-28T04:10:15.100Z,100.00
2022-09-28T04:12:42.800Z,100.00
2022-09-28T04:15:10.854Z,100.00
2022-09-28T04:17:40.194Z,100.00
2022-09-28T04:20:08.919Z,100.00
2022-09-28T04:22:37.976Z,100.00
2022-09-28T04:25:06.515Z,100.00
2022-09-28T04:27:35.704Z,100.00
2022-09-28T04:30:03.962Z,100.00
2022-09-28T04:32:31.771Z,100.00
2022-09-28T04:34:59.464Z,100.00
2022-09-28T04:37:27.192Z,100.00
2022-09-28T04:39:56.740Z,100.00
2022-09-28T04:42:24.525Z,100.00
2022-09-28T04:44:53.666Z,100.00
2022-09-28T04:47:21.221Z,100.00
2022-09-28T04:49:49.137Z,100.00
2022-09-28T04:52:18.482Z,100.00
2022-09-28T04:54:46.281Z,100.00
2022-09-28T04:57:15.731Z,100.00
2022-09-28T04:59:43.281Z,100.00
2022-09-28T05:02:11.422Z,100.00
2022-09-28T05:04:39.384Z,100.00
2022-09-28T05:07:07.205Z,100.00
2022-09-28T05:09:38.433Z,100.00
2022-09-28T05:12:06.690Z,100.00
2022-09-28T05:14:36.024Z,100.00
2022-09-28T05:17:03.871Z,100.00
2022-09-28T05:19:31.839Z,100.00
2022-09-28T05:21:59.472Z,100.00
2022-09-28T05:24:27.676Z,100.00
2022-09-28T05:26:55.286Z,100.00
2022-09-28T05:29:23.454Z,100.00
2022-09-28T05:31:52.687Z,100.00
2022-09-28T05:34:20.351Z,100.00
2022-09-28T05:36:48.077Z,100.00
2022-09-28T05:39:15.681Z,100.00
2022-09-28T05:41:43.476Z,100.00
2022-09-28T05:44:12.184Z,100.00
2022-09-28T05:46:39.757Z,100.00
2022-09-28T05:49:09.218Z,100.00
2022-09-28T05:51:36.986Z,100.00
2022-09-28T05:54:06.120Z,100.00
2022-09-28T05:56:34.257Z,100.00
2022-09-28T05:59:01.996Z,100.00
2022-09-28T06:01:30.569Z,100.00
2022-09-28T06:03:58.716Z,100.00
2022-09-28T06:06:27.665Z,100.00
2022-09-28T06:08:55.276Z,100.00
2022-09-28T06:11:23.189Z,100.00
2022-09-28T06:13:54.312Z,100.00
2022-09-28T06:16:22.082Z,100.00
2022-09-28T06:18:50.699Z,100.00
2022-09-28T06:21:18.256Z,100.00
2022-09-28T06:23:49.316Z,100.00
2022-09-28T06:26:17.378Z,100.00
2022-09-28T06:28:45.023Z,100.00
2022-09-28T06:31:12.974Z,100.00
2022-09-28T06:33:40.837Z,100.00
2022-09-28T06:36:08.865Z,100.00
2022-09-28T06:38:36.982Z,100.00
2022-09-28T06:41:06.461Z,100.00
2022-09-28T06:43:34.581Z,100.00
2022-09-28T06:46:02.702Z,100.00
2022-09-28T06:48:31.042Z,100.00
2022-09-28T06:50:58.626Z,100.00
2022-09-28T06:53:26.751Z,100.00
2022-09-28T06:55:55.363Z,100.00
2022-09-28T06:58:26.362Z,100.00
2022-09-28T07:00:56.656Z,100.00
2022-09-28T07:03:24.368Z,100.00
2022-09-28T07:05:53.406Z,100.00
2022-09-28T07:08:22.756Z,100.00
2022-09-28T07:10:51.242Z,100.00
2022-09-28T07:13:44.396Z,100.00
2022-09-28T07:16:08.211Z,100.00
2022-09-28T07:18:37.733Z,100.00
2022-09-28T07:21:05.632Z,100.00
2022-09-28T07:23:39.153Z,100.00
2022-09-28T07:26:10.004Z,100.00
2022-09-28T07:28:37.943Z,100.00
2022-09-28T07:31:07.137Z,100.00
2022-09-28T07:33:34.784Z,100.00
2022-09-28T07:36:03.624Z,100.00
2022-09-28T07:38:31.271Z,100.00
2022-09-28T07:40:58.935Z,100.00
2022-09-28T07:43:27.381Z,100.00
2022-09-28T07:45:54.999Z,100.00
2022-09-28T07:48:25.476Z,100.00
2022-09-28T07:50:55.276Z,100.00
2022-09-28T07:53:25.047Z,100.00
2022-09-28T07:55:53.526Z,100.00
2022-09-28T07:58:21.456Z,100.00
2022-09-28T08:00:50.124Z,98.11
2022-09-28T08:03:19.425Z,96.03
2022-09-28T08:05:48.618Z,95.46
2022-09-28T08:08:17.152Z,91.72
2022-09-28T08:10:47.208Z,95.40
2022-09-28T08:13:15.486Z,90.95
2022-09-28T08:15:46.167Z,94.60
2022-09-28T08:18:13.964Z,92.16
2022-09-28T08:20:42.216Z,91.17
2022-09-28T08:23:11.405Z,92.46
2022-09-28T08:25:38.996Z,91.94
2022-09-28T08:28:07.153Z,90.73
2022-09-28T08:30:34.945Z,93.16
2022-09-28T08:33:02.962Z,89.57
2022-09-28T08:35:30.722Z,88.38
2022-09-28T08:37:58.339Z,89.35
2022-09-28T08:40:27.399Z,91.99
2022-09-28T08:42:58.212Z,92.96
2022-09-28T08:45:28.249Z,90.39
2022-09-28T08:48:02.160Z,87.07
2022-09-28T08:50:33.120Z,88.91
2022-09-28T08:53:12.463Z,90.16
2022-09-28T08:55:43.773Z,90.85
2022-09-28T08:58:13.737Z,88.76
2022-09-28T09:00:46.997Z,83.25
2022-09-28T09:03:17.879Z,83.85
2022-09-28T09:05:59.666Z,80.33
2022-09-28T09:08:41.489Z,80.32
2022-09-28T09:11:23.254Z,81.01
2022-09-28T09:14:23.406Z,81.16
2022-09-28T09:17:01.370Z,83.46
2022-09-28T09:19:35.980Z,81.33
2022-09-28T09:22:15.723Z,81.39
2022-09-28T09:24:49.481Z,81.12
2022-09-28T09:27:42.509Z,82.19
2022-09-28T09:30:17.733Z,82.20
2022-09-28T09:33:03.834Z,81.37
2022-09-28T09:35:59.815Z,81.23
2022-09-28T09:38:50.229Z,81.70
2022-09-28T09:41:31.323Z,80.87
2022-09-28T09:44:14.954Z,83.46
2022-09-28T09:46:47.155Z,82.73
2022-09-28T09:49:19.428Z,82.93
2022-09-28T09:51:53.004Z,82.85
2022-09-28T09:54:26.171Z,83.17
2022-09-28T09:57:00.019Z,83.26
2022-09-28T09:59:34.155Z,82.27
2022-09-28T10:02:03.473Z,82.22
2022-09-28T10:04:36.813Z,81.55
2022-09-28T10:07:06.825Z,79.79
2022-09-28T10:09:39.676Z,80.68
2022-09-28T10:12:09.720Z,80.73
2022-09-28T10:14:39.336Z,80.37
2022-09-28T10:17:10.757Z,80.22
2022-09-28T10:19:38.689Z,78.82
2022-09-28T10:22:06.584Z,78.22
2022-09-28T10:24:38.776Z,77.91
2022-09-28T10:27:11.426Z,78.53
2022-09-28T10:29:52.156Z,78.72
2022-09-28T10:32:22.708Z,77.98
2022-09-28T10:34:51.821Z,76.45
2022-09-28T10:37:19.920Z,77.02
2022-09-28T10:39:51.719Z,78.06
2022-09-28T10:42:22.246Z,78.33
2022-09-28T10:44:59.511Z,76.38
2022-09-28T10:47:30.155Z,76.63
2022-09-28T10:50:00.627Z,77.51
2022-09-28T10:52:35.297Z,75.97
2022-09-28T10:55:25.905Z,78.09
2022-09-28T10:57:53.891Z,79.35
2022-09-28T11:00:34.810Z,79.11
2022-09-28T11:03:03.171Z,80.37
2022-09-28T11:05:31.524Z,80.42
2022-09-28T11:08:03.730Z,81.50
2022-09-28T11:10:32.791Z,81.09
2022-09-28T11:13:00.964Z,81.41
2022-09-28T11:15:31.643Z,81.72
2022-09-28T11:18:19.209Z,83.17
2022-09-28T11:20:47.062Z,82.93
2022-09-28T11:23:21.764Z,83.29
2022-09-28T11:25:58.769Z,83.15
2022-09-28T11:28:31.642Z,83.31
2022-09-28T11:31:01.144Z,82.80
2022-09-28T11:33:33.508Z,83.45
2022-09-28T11:36:24.341Z,82.74
2022-09-28T11:38:59.789Z,83.17
2022-09-28T11:41:45.970Z,84.35
2022-09-28T11:44:32.557Z,83.79
2022-09-28T11:47:16.644Z,84.68
2022-09-28T11:49:49.669Z,83.73
2022-09-28T11:52:22.846Z,84.66
2022-09-28T11:54:55.681Z,82.60
2022-09-28T11:57:29.855Z,84.07
2022-09-28T12:00:00.583Z,82.37
2022-09-28T12:02:33.972Z,82.95
2022-09-28T12:05:17.111Z,80.79
2022-09-28T12:07:51.577Z,82.41
2022-09-28T12:10:33.157Z,82.32
2022-09-28T12:13:06.083Z,83.05
2022-09-28T12:16:11.626Z,82.34
2022-09-28T12:18:39.013Z,82.13
2022-09-28T12:21:22.473Z,83.20
2022-09-28T12:23:53.687Z,81.86
2022-09-28T12:26:35.914Z,84.22
2022-09-28T12:29:13.288Z,83.50
2022-09-28T12:31:52.305Z,83.08
2022-09-28T12:34:21.016Z,82.85
2022-09-28T12:37:02.957Z,81.67
2022-09-28T12:39:56.968Z,83.31
2022-09-28T12:42:40.988Z,81.77
2022-09-28T12:45:23.694Z,82.52
2022-09-28T12:48:22.892Z,81.42
2022-09-28T12:50:59.277Z,82.27
2022-09-28T12:54:02.896Z,81.22
2022-09-28T12:56:41.324Z,81.51
2022-09-28T12:59:18.853Z,79.61
2022-09-28T13:02:13.783Z,79.32
2022-09-28T13:05:16.839Z,80.91
2022-09-28T13:07:53.809Z,79.03
2022-09-28T13:10:30.225Z,79.57
2022-09-28T13:13:12.171Z,78.72
2022-09-28T13:15:45.255Z,77.91
2022-09-28T13:18:22.594Z,77.93
2022-09-28T13:21:09.376Z,78.17
2022-09-28T13:23:41.580Z,77.18
2022-09-28T13:26:18.570Z,77.07
2022-09-28T13:28:49.005Z,76.37
2022-09-28T13:31:21.873Z,76.35
2022-09-28T13:33:51.311Z,74.99
2022-09-28T13:36:39.140Z,76.50
2022-09-28T13:39:39.784Z,74.35
2022-09-28T13:42:09.915Z,75.66
2022-09-28T13:45:11.244Z,76.25
2022-09-28T13:48:03.543Z,75.13
2022-09-28T13:50:43.766Z,75.23
2022-09-28T13:53:20.541Z,75.73
2022-09-28T13:55:56.736Z,75.80
2022-09-28T13:58:30.615Z,75.58
2022-09-28T14:01:03.597Z,75.39
2022-09-28T14:03:43.998Z,75.44
2022-09-28T14:06:24.106Z,75.23
2022-09-28T14:09:23.410Z,75.07
2022-09-28T14:11:59.643Z,75.32
2022-09-28T14:14:43.865Z,75.03
2022-09-28T14:17:53.115Z,74.92
2022-09-28T14:20:25.057Z,77.24
2022-09-28T14:23:28.168Z,75.93
2022-09-28T14:26:17.618Z,74.74
2022-09-28T14:28:58.984Z,74.98
2022-09-28T14:31:29.483Z,75.23
2022-09-28T14:33:59.448Z,76.86
2022-09-28T14:36:34.558Z,76.36
2022-09-28T14:39:02.541Z,76.16
2022-09-28T14:41:33.570Z,74.90
2022-09-28T14:44:11.938Z,76.01
2022-09-28T14:46:44.996Z,75.87
2022-09-28T14:49:44.324Z,77.81
2022-09-28T14:52:13.478Z,77.34
2022-09-28T14:54:48.424Z,77.34
2022-09-28T14:57:18.905Z,77.78
2022-09-28T14:59:47.029Z,77.77
2022-09-28T15:02:24.196Z,78.91
2022-09-28T15:04:54.379Z,79.15
2022-09-28T15:07:24.700Z,78.77
2022-09-28T15:09:53.562Z,79.26
2022-09-28T15:12:24.941Z,79.47
2022-09-28T15:14:57.575Z,79.88
2022-09-28T15:17:28.774Z,79.83
2022-09-28T15:20:14.586Z,81.18
2022-09-28T15:22:46.434Z,81.35
2022-09-28T15:25:18.555Z,81.19
2022-09-28T15:27:47.384Z,82.20
2022-09-28T15:30:23.050Z,84.04
2022-09-28T15:32:53.651Z,84.07
2022-09-28T15:35:24.038Z,85.98
2022-09-28T15:37:52.442Z,87.73
2022-09-28T15:40:33.822Z,88.32
2022-09-28T15:43:01.639Z,89.04
2022-09-28T15:45:34.775Z,89.27
2022-09-28T15:48:29.338Z,89.52
2022-09-28T15:51:03.290Z,90.88
2022-09-28T15:53:31.212Z,91.61
2022-09-28T15:56:05.142Z,92.10
2022-09-28T15:58:32.852Z,93.61
2022-09-28T16:01:23.333Z,92.07
2022-09-28T16:03:52.732Z,93.05
2022-09-28T16:06:20.623Z,95.46
2022-09-28T16:08:49.317Z,94.71
2022-09-28T16:11:21.385Z,94.80
2022-09-28T16:13:56.482Z,96.42
2022-09-28T16:16:28.082Z,97.54
2022-09-28T16:18:59.512Z,95.81
2022-09-28T16:21:45.400Z,97.85
2022-09-28T16:24:22.689Z,97.95
2022-09-28T16:26:56.736Z,98.17
2022-09-28T16:29:26.721Z,99.05
2022-09-28T16:31:54.762Z,97.97
2022-09-28T16:34:26.904Z,99.73
2022-09-28T16:36:54.771Z,99.58
2022-09-28T16:39:22.363Z,100.00
2022-09-28T16:41:54.036Z,99.76
2022-09-28T16:44:25.567Z,100.00
2022-09-28T16:46:54.502Z,99.40
2022-09-28T16:49:23.880Z,100.00
2022-09-28T16:51:53.110Z,100.00
2022-09-28T16:54:23.241Z,100.00
2022-09-28T16:56:50.985Z,100.00
2022-09-28T16:59:18.636Z,100.00
2022-09-28T17:01:53.032Z,100.00
2022-09-28T17:04:21.208Z,100.00
2022-09-28T17:06:50.479Z,100.00
2022-09-28T17:09:21.029Z,100.00
2022-09-28T17:11:49.676Z,100.00
2022-09-28T17:14:17.785Z,100.00
2022-09-28T17:19:33.826Z,100.00
2022-09-28T17:22:01.633Z,100.00
2022-09-28T17:24:30.808Z,100.00
2022-09-28T17:26:58.484Z,100.00
2022-09-28T17:29:26.702Z,100.00
2022-09-28T17:31:54.428Z,100.00
2022-09-28T17:34:22.250Z,100.00
2022-09-28T17:36:50.067Z,100.00
2022-09-28T17:39:18.921Z,100.00
2022-09-28T17:41:48.349Z,100.00
2022-09-28T17:44:16.499Z,100.00
2022-09-28T17:46:46.236Z,100.00
2022-09-28T17:49:14.980Z,100.00
2022-09-28T17:51:42.679Z,100.00
2022-09-28T17:54:10.289Z,100.00
2022-09-28T17:56:37.916Z,100.00
2022-09-28T17:59:14.258Z,100.00
2022-09-28T18:01:42.149Z,100.00
2022-09-28T18:04:23.029Z,100.00
2022-09-28T18:06:59.682Z,100.00
2022-09-28T18:09:27.825Z,100.00
2022-09-28T18:11:59.697Z,100.00
2022-09-28T18:14:28.977Z,100.00
2022-09-28T18:16:56.669Z,100.00
2022-09-28T18:19:27.462Z,100.00
2022-09-28T18:21:58.937Z,100.00
2022-09-28T18:24:26.711Z,100.00
2022-09-28T18:26:54.537Z,100.00
2022-09-28T18:29:22.514Z,100.00
2022-09-28T18:31:51.731Z,100.00
2022-09-28T18:34:19.640Z,100.00
2022-09-28T18:36:47.685Z,100.00
2022-09-28T18:39:15.297Z,100.00
2022-09-28T18:41:42.966Z,100.00
2022-09-28T18:44:10.763Z,100.00
2022-09-28T18:46:38.401Z,100.00
2022-09-28T18:49:07.643Z,100.00
2022-09-28T18:51:35.435Z,100.00
2022-09-28T18:54:03.712Z,100.00
2022-09-28T18:56:31.751Z,100.00
2022-09-28T18:58:59.746Z,100.00
2022-09-28T19:01:30.846Z,100.00
2022-09-28T19:03:59.906Z,100.00
2022-09-28T19:06:29.446Z,100.00
2022-09-28T19:08:57.523Z,100.00
2022-09-28T19:11:26.115Z,100.00
2022-09-28T19:13:54.215Z,100.00
2022-09-28T19:16:24.419Z,100.00
2022-09-28T19:18:52.658Z,100.00
2022-09-28T19:21:20.667Z,100.00
2022-09-28T19:23:50.166Z,100.00
2022-09-28T19:26:20.226Z,100.00
2022-09-28T19:28:48.634Z,100.00
2022-09-28T19:31:16.752Z,100.00
2022-09-28T19:33:44.982Z,100.00
2022-09-28T19:36:14.793Z,100.00
2022-09-28T19:38:42.521Z,100.00
2022-09-28T19:41:12.983Z,100.00
2022-09-28T19:43:40.528Z,100.00
2022-09-28T19:46:08.346Z,100.00
2022-09-28T19:48:36.307Z,100.00
2022-09-28T19:51:06.049Z,100.00
2022-09-28T19:53:35.348Z,100.00
2022-09-28T19:56:06.580Z,100.00
2022-09-28T19:58:36.776Z,100.00
2022-09-28T20:01:05.737Z,100.00
2022-09-28T20:03:33.419Z,100.00
2022-09-28T20:06:01.990Z,100.00
2022-09-28T20:08:30.020Z,100.00
2022-09-28T20:10:58.781Z,100.00
2022-09-28T20:13:31.033Z,100.00
2022-09-28T20:16:05.582Z,100.00
2022-09-28T20:18:35.002Z,100.00
2022-09-28T20:21:03.301Z,100.00
2022-09-28T20:23:30.956Z,100.00
2022-09-28T20:25:59.089Z,100.00
2022-09-28T20:28:26.681Z,100.00
2022-09-28T20:30:54.583Z,100.00
2022-09-28T20:33:28.766Z,100.00
2022-09-28T20:35:57.090Z,100.00
2022-09-28T20:38:24.773Z,100.00
2022-09-28T20:40:52.427Z,100.00
2022-09-28T20:43:20.189Z,100.00
2022-09-28T20:45:47.753Z,100.00
2022-09-28T20:48:15.339Z,100.00
2022-09-28T20:50:44.784Z,100.00
2022-09-28T20:53:12.452Z,100.00
2022-09-28T20:55:40.057Z,100.00
2022-09-28T20:58:07.709Z,100.00
2022-09-28T21:00:35.272Z,100.00
2022-09-28T21:03:02.928Z,100.00
2022-09-28T21:05:30.859Z,100.00
2022-09-28T21:08:00.014Z,100.00
2022-09-28T21:10:27.724Z,100.00
2022-09-28T21:12:55.559Z,100.00
2022-09-28T21:15:23.384Z,100.00
2022-09-28T21:17:52.536Z,100.00
2022-09-28T21:20:20.514Z,100.00
2022-09-28T21:22:48.317Z,100.00
2022-09-28T21:25:17.335Z,100.00
2022-09-28T21:27:45.315Z,100.00
2022-09-28T21:30:13.460Z,100.00
2022-09-28T21:32:41.397Z,100.00
2022-09-28T21:35:09.859Z,100.00
2022-09-28T21:37:37.470Z,100.00
2022-09-28T21:40:05.837Z,100.00
2022-09-28T21:42:35.072Z,100.00
2022-09-28T21:45:02.684Z,100.00
2022-09-28T21:47:30.585Z,100.00
2022-09-28T21:49:58.265Z,100.00
2022-09-28T21:52:26.332Z,100.00
2022-09-28T21:54:53.917Z,100.00
2022-09-28T21:57:21.652Z,100.00
2022-09-28T21:59:50.776Z,100.00
2022-09-28T22:02:18.453Z,100.00
2022-09-28T22:04:46.240Z,100.00
2022-09-28T22:07:13.817Z,100.00
2022-09-28T22:09:41.778Z,100.00
2022-09-28T22:12:09.652Z,100.00
2022-09-28T22:14:38.363Z,100.00
2022-09-28T22:17:07.374Z,100.00
2022-09-28T22:19:35.254Z,100.00
2022-09-28T22:22:02.837Z,100.00
2022-09-28T22:24:30.499Z,100.00
2022-09-28T22:26:58.175Z,100.00
2022-09-28T22:29:25.855Z,100.00
2022-09-28T22:31:53.412Z,100.00
2022-09-28T22:34:22.451Z,100.00
2022-09-28T22:36:50.188Z,100.00
2022-09-28T22:39:17.773Z,100.00
2022-09-28T22:41:45.625Z,100.00
2022-09-28T22:44:13.239Z,100.00
2022-09-28T22:46:40.938Z,100.00
2022-09-28T22:49:10.670Z,100.00
2022-09-28T22:51:39.834Z,100.00
2022-09-28T22:54:11.663Z,100.00
2022-09-28T22:56:39.439Z,100.00
2022-09-28T22:59:07.013Z,100.00
2022-09-28T23:01:34.954Z,100.00
2022-09-28T23:04:02.608Z,100.00
2022-09-28T23:06:30.556Z,100.00
2022-09-28T23:08:59.983Z,100.00
2022-09-28T23:11:28.770Z,100.00
2022-09-28T23:13:58.034Z,100.00
2022-09-28T23:16:26.622Z,100.00
2022-09-28T23:18:56.194Z,100.00
2022-09-28T23:21:25.347Z,100.00
2022-09-28T23:23:55.387Z,100.00
2022-09-28T23:26:27.264Z,100.00
2022-09-28T23:28:54.854Z,100.00
2022-09-28T23:31:24.490Z,100.00
2022-09-28T23:33:52.485Z,100.00
2022-09-28T23:36:20.857Z,100.00
2022-09-28T23:38:48.616Z,100.00
2022-09-28T23:41:16.147Z,100.00
2022-09-28T23:43:45.991Z,100.00
2022-09-28T23:46:17.280Z,100.00
2022-09-28T23:48:48.413Z,100.00
2022-09-28T23:51:17.283Z,100.00
2022-09-28T23:53:45.079Z,100.00
2022-09-28T23:56:13.128Z,100.00
2022-09-28T23:58:41.102Z,100.00
